Time;durP1;ratioP1;P1;durP2;ratioP2;P2;SDS_P1;SDS_P2;PMS_P1;PMS_P2;Temp;Humidity;BMP_temperature;BMP_pressure;BME280_temperature;BME280_humidity;BME280_pressure;Samples;Min_cycle;Max_cycle;Signal;HPM_P1;HPM_P2
2023/03/16 00:02:53;;;;;;;5.90;3.30;;;;;;;;;;8236138;28;20411;-77
2023/03/16 00:06:53;;;;;;;4.00;3.30;;;;;;;;;;8239318;28;20037;-77
2023/03/16 00:10:53;;;;;;;5.20;3.22;;;;;;;;;;8248096;28;20732;-76
2023/03/16 00:14:53;;;;;;;5.45;3.45;;;;;;;;;;8240555;28;20473;-77
2023/03/16 00:18:54;;;;;;;5.53;3.65;;;;;;;;;;8243360;28;20144;-77
2023/03/16 00:22:54;;;;;;;5.18;3.70;;;;;;;;;;8240015;28;20061;-77
2023/03/16 00:26:54;;;;;;;3.90;3.10;;;;;;;;;;8238363;28;20032;-77
2023/03/16 00:30:58;;;;;;;4.07;3.25;;;;;;;;;;8237695;28;20046;-77
2023/03/16 00:34:58;;;;;;;5.15;3.42;;;;;;;;;;8242669;28;20222;-77
2023/03/16 00:38:58;;;;;;;5.30;3.65;;;;;;;;;;8239050;28;20050;-77
2023/03/16 00:42:58;;;;;;;5.35;3.75;;;;;;;;;;8237997;28;20589;-77
2023/03/16 00:47:00;;;;;;;6.88;3.95;;;;;;;;;;8240815;28;20549;-77
2023/03/16 00:51:03;;;;;;;6.30;4.15;;;;;;;;;;8239666;28;20435;-77
2023/03/16 00:55:03;;;;;;;6.88;4.00;;;;;;;;;;8242195;28;20053;-77
2023/03/16 00:59:04;;;;;;;4.75;3.80;;;;;;;;;;8240575;28;20014;-77
2023/03/16 01:03:04;;;;;;;7.50;4.32;;;;;;;;;;8237544;28;20045;-78
2023/03/16 01:07:05;;;;;;;5.38;3.60;;;;;;;;;;8241016;28;20464;-77
2023/03/16 01:11:06;;;;;;;9.35;4.10;;;;;;;;;;8250027;28;20014;-77
2023/03/16 01:15:07;;;;;;;11.80;7.45;;;;;;;;;;8242967;28;20652;-77
2023/03/16 01:19:07;;;;;;;9.85;6.15;;;;;;;;;;8236766;28;20561;-77
2023/03/16 01:23:08;;;;;;;8.00;5.57;;;;;;;;;;8248043;28;20021;-77
2023/03/16 01:27:08;;;;;;;10.23;5.82;;;;;;;;;;8239267;28;20284;-77
2023/03/16 01:31:09;;;;;;;8.35;5.15;;;;;;;;;;8236770;28;20088;-77
2023/03/16 01:35:09;;;;;;;8.48;5.68;;;;;;;;;;8237552;28;20780;-77
2023/03/16 01:39:10;;;;;;;7.93;5.47;;;;;;;;;;8238278;28;20022;-77
2023/03/16 01:43:10;;;;;;;8.35;4.60;;;;;;;;;;8244091;28;20062;-77
2023/03/16 01:47:13;;;;;;;6.93;4.88;;;;;;;;;;8238671;28;20744;-77
2023/03/16 01:51:13;;;;;;;8.20;5.55;;;;;;;;;;8244188;28;21017;-77
2023/03/16 01:55:14;;;;;;;11.75;6.63;;;;;;;;;;8248587;28;20136;-77
2023/03/16 01:59:15;;;;;;;9.90;6.15;;;;;;;;;;8260332;28;20095;-77
2023/03/16 02:03:17;;;;;;;11.18;6.15;;;;;;;;;;8245394;28;20651;-76
2023/03/16 02:07:20;;;;;;;10.48;6.50;;;;;;;;;;8253748;28;20022;-77
2023/03/16 02:11:21;;;;;;;7.78;5.95;;;;;;;;;;8247323;28;21056;-77
2023/03/16 02:15:21;;;;;;;8.20;5.43;;;;;;;;;;8247349;28;20355;-77
2023/03/16 02:19:35;;;;;;;9.00;6.03;;;;;;;;;;8257690;28;20729;-77
2023/03/16 02:23:35;;;;;;;7.87;5.80;;;;;;;;;;8248676;28;20116;-77
2023/03/16 02:27:50;;;;;;;8.52;6.10;;;;;;;;;;8241892;28;20069;-77
2023/03/16 02:31:52;;;;;;;8.77;6.05;;;;;;;;;;8245075;28;20093;-76
2023/03/16 02:35:52;;;;;;;9.40;6.20;;;;;;;;;;8244829;28;20038;-76
2023/03/16 02:39:52;;;;;;;8.02;5.85;;;;;;;;;;8246400;28;20034;-77
2023/03/16 02:43:54;;;;;;;9.48;5.78;;;;;;;;;;8247215;28;20057;-77
2023/03/16 02:47:55;;;;;;;7.85;6.07;;;;;;;;;;8244895;28;20875;-77
2023/03/16 02:51:56;;;;;;;8.70;6.50;;;;;;;;;;8243960;28;20564;-77
2023/03/16 02:55:56;;;;;;;11.18;6.97;;;;;;;;;;8243995;28;20683;-77
2023/03/16 02:59:56;;;;;;;9.23;7.13;;;;;;;;;;8247729;28;20032;-77
2023/03/16 03:03:56;;;;;;;8.55;6.28;;;;;;;;;;8243424;28;20040;-77
2023/03/16 03:07:57;;;;;;;10.57;7.18;;;;;;;;;;8245038;28;20018;-77
2023/03/16 03:11:57;;;;;;;9.07;6.53;;;;;;;;;;8259765;28;20022;-77
2023/03/16 03:15:57;;;;;;;9.95;7.47;;;;;;;;;;8244770;28;20080;-77
2023/03/16 03:19:58;;;;;;;11.48;8.43;;;;;;;;;;8243367;28;20125;-77
2023/03/16 03:23:58;;;;;;;13.10;8.38;;;;;;;;;;8243783;28;20035;-77
2023/03/16 03:27:59;;;;;;;9.75;7.38;;;;;;;;;;8241530;28;20108;-77
2023/03/16 03:32:03;;;;;;;12.50;7.85;;;;;;;;;;8241303;28;20149;-76
2023/03/16 03:36:03;;;;;;;10.55;7.70;;;;;;;;;;8248251;28;20030;-76
2023/03/16 03:40:04;;;;;;;10.35;7.10;;;;;;;;;;8242268;28;20146;-76
2023/03/16 03:44:04;;;;;;;11.82;6.95;;;;;;;;;;8242527;28;20026;-76
2023/03/16 03:48:05;;;;;;;9.90;6.80;;;;;;;;;;8241883;28;20080;-76
2023/03/16 03:52:05;;;;;;;10.07;7.43;;;;;;;;;;8257806;28;20272;-77
2023/03/16 03:56:05;;;;;;;12.60;7.80;;;;;;;;;;8244203;28;20950;-77
2023/03/16 04:00:09;;;;;;;12.18;8.10;;;;;;;;;;8252695;28;20395;-77
2023/03/16 04:04:09;;;;;;;9.68;7.18;;;;;;;;;;8239606;28;20030;-77
2023/03/16 04:08:10;;;;;;;10.27;6.85;;;;;;;;;;8257877;28;20805;-76
2023/03/16 04:12:10;;;;;;;9.75;7.68;;;;;;;;;;8244328;28;20073;-76
2023/03/16 04:16:14;;;;;;;12.32;8.43;;;;;;;;;;8241982;28;20060;-77
2023/03/16 04:20:18;;;;;;;14.85;9.35;;;;;;;;;;8248405;28;20021;-76
2023/03/16 04:24:18;;;;;;;12.45;9.02;;;;;;;;;;8241594;28;22532;-77
2023/03/16 04:28:18;;;;;;;11.30;8.23;;;;;;;;;;8239123;28;20096;-77
2023/03/16 04:32:18;;;;;;;16.52;9.65;;;;;;;;;;8242285;28;20514;-77
2023/03/16 04:36:19;;;;;;;17.20;10.52;;;;;;;;;;8251444;28;20748;-77
2023/03/16 04:40:19;;;;;;;12.90;8.70;;;;;;;;;;8241544;28;20037;-77
2023/03/16 04:44:20;;;;;;;17.33;8.15;;;;;;;;;;8243328;28;20029;-76
2023/03/16 04:48:20;;;;;;;12.18;8.48;;;;;;;;;;8240141;28;20038;-77
2023/03/16 04:52:20;;;;;;;14.18;9.80;;;;;;;;;;8248964;28;20034;-77
2023/03/16 04:56:20;;;;;;;15.85;10.90;;;;;;;;;;8257157;28;20818;-77
2023/03/16 05:00:22;;;;;;;15.50;11.60;;;;;;;;;;8240664;28;20165;-77
2023/03/16 05:04:23;;;;;;;17.20;11.93;;;;;;;;;;8246322;28;20080;-77
2023/03/16 05:08:23;;;;;;;19.60;10.18;;;;;;;;;;8242736;28;20022;-77
2023/03/16 05:12:23;;;;;;;15.95;11.38;;;;;;;;;;8244745;28;20030;-77
2023/03/16 05:16:24;;;;;;;14.65;10.27;;;;;;;;;;8244898;28;20913;-76
2023/03/16 05:20:24;;;;;;;14.83;9.87;;;;;;;;;;8244999;28;20041;-77
2023/03/16 05:24:24;;;;;;;13.77;9.57;;;;;;;;;;8249034;28;20524;-77
2023/03/16 05:28:24;;;;;;;15.55;10.82;;;;;;;;;;8248618;28;20044;-76
2023/03/16 05:32:24;;;;;;;17.00;12.25;;;;;;;;;;8264921;28;20035;-77
2023/03/16 05:36:24;;;;;;;19.80;12.32;;;;;;;;;;8268992;28;20779;-77
2023/03/16 05:40:25;;;;;;;17.58;11.63;;;;;;;;;;8248072;28;20026;-77
2023/03/16 05:44:25;;;;;;;18.98;12.50;;;;;;;;;;8249426;28;20982;-77
2023/03/16 05:48:25;;;;;;;14.70;11.13;;;;;;;;;;8261589;28;20049;-77
2023/03/16 05:52:25;;;;;;;18.73;12.00;;;;;;;;;;8247779;28;20120;-77
2023/03/16 05:56:27;;;;;;;18.02;12.90;;;;;;;;;;8250056;28;20787;-76
2023/03/16 06:00:28;;;;;;;22.42;14.07;;;;;;;;;;8254109;28;20160;-76
2023/03/16 06:04:28;;;;;;;21.65;15.55;;;;;;;;;;8256028;28;20374;-75
2023/03/16 06:08:28;;;;;;;14.23;10.90;;;;;;;;;;8247441;28;20103;-79
2023/03/16 06:12:29;;;;;;;16.75;12.20;;;;;;;;;;8248408;28;20018;-79
2023/03/16 06:16:29;;;;;;;15.75;12.40;;;;;;;;;;8245206;28;20034;-78
2023/03/16 06:20:29;;;;;;;15.18;11.25;;;;;;;;;;8244352;28;20091;-79
2023/03/16 06:24:29;;;;;;;18.35;12.80;;;;;;;;;;8252477;28;20029;-78
2023/03/16 06:28:30;;;;;;;16.30;11.15;;;;;;;;;;8244474;28;20330;-79
2023/03/16 06:32:30;;;;;;;14.67;10.67;;;;;;;;;;8250166;28;20034;-78
2023/03/16 06:36:30;;;;;;;18.27;12.48;;;;;;;;;;8248037;28;20331;-78
2023/03/16 06:40:30;;;;;;;18.48;11.40;;;;;;;;;;8246826;28;20033;-78
2023/03/16 06:44:31;;;;;;;17.35;12.10;;;;;;;;;;8246556;28;20033;-78
2023/03/16 06:48:31;;;;;;;15.35;11.20;;;;;;;;;;8252244;28;20038;-79
2023/03/16 06:52:31;;;;;;;17.25;12.77;;;;;;;;;;8244198;28;20679;-78
2023/03/16 06:56:32;;;;;;;13.48;10.43;;;;;;;;;;8248695;28;20049;-77
2023/03/16 07:00:32;;;;;;;14.15;10.55;;;;;;;;;;8244566;28;20042;-78
2023/03/16 07:04:33;;;;;;;14.70;11.18;;;;;;;;;;8249805;28;20053;-78
2023/03/16 07:08:33;;;;;;;13.60;9.75;;;;;;;;;;8247200;28;20072;-79
2023/03/16 07:12:33;;;;;;;11.05;9.02;;;;;;;;;;8261799;28;20068;-78
2023/03/16 07:16:34;;;;;;;12.18;9.23;;;;;;;;;;8244905;28;20664;-78
2023/03/16 07:20:34;;;;;;;12.18;8.13;;;;;;;;;;8256608;28;20903;-78
2023/03/16 07:24:34;;;;;;;9.02;7.45;;;;;;;;;;8245438;28;20022;-78
2023/03/16 07:28:34;;;;;;;8.00;6.85;;;;;;;;;;8252963;28;20049;-78
2023/03/16 07:32:35;;;;;;;7.47;6.68;;;;;;;;;;8242946;28;20544;-77
2023/03/16 07:36:35;;;;;;;9.88;7.35;;;;;;;;;;8243915;28;20025;-77
2023/03/16 07:40:36;;;;;;;8.07;6.90;;;;;;;;;;8246027;28;20033;-77
2023/03/16 07:44:36;;;;;;;7.75;6.70;;;;;;;;;;8243862;28;20018;-78
2023/03/16 07:48:36;;;;;;;8.80;7.13;;;;;;;;;;8244505;28;20035;-78
2023/03/16 07:52:36;;;;;;;8.27;6.65;;;;;;;;;;8245709;28;20064;-78
2023/03/16 07:56:37;;;;;;;7.82;6.95;;;;;;;;;;8245294;28;20022;-78
2023/03/16 08:00:37;;;;;;;10.43;7.88;;;;;;;;;;8245347;28;20030;-78
2023/03/16 08:04:41;;;;;;;9.18;7.45;;;;;;;;;;8243568;28;20033;-78
2023/03/16 08:08:41;;;;;;;8.57;6.80;;;;;;;;;;8248363;28;20033;-78
2023/03/16 08:12:42;;;;;;;10.10;8.00;;;;;;;;;;8243279;28;20030;-78
2023/03/16 08:16:42;;;;;;;7.72;6.93;;;;;;;;;;8244101;28;21063;-77
2023/03/16 08:20:43;;;;;;;10.60;8.63;;;;;;;;;;8242930;28;20115;-77
2023/03/16 08:24:43;;;;;;;10.80;8.15;;;;;;;;;;8245670;28;20128;-78
2023/03/16 08:28:47;;;;;;;10.95;8.02;;;;;;;;;;8243919;28;20563;-77
2023/03/16 08:32:49;;;;;;;9.40;7.53;;;;;;;;;;8243334;28;20105;-78
2023/03/16 08:36:49;;;;;;;9.63;7.55;;;;;;;;;;8245582;28;20010;-77
2023/03/16 08:40:49;;;;;;;9.30;7.68;;;;;;;;;;8243744;28;20022;-78
2023/03/16 08:44:52;;;;;;;10.52;8.23;;;;;;;;;;8247340;28;20029;-79
2023/03/16 08:48:54;;;;;;;9.77;8.00;;;;;;;;;;8242445;28;20844;-78
2023/03/16 08:52:55;;;;;;;11.93;7.80;;;;;;;;;;8243311;28;20088;-78
2023/03/16 08:56:55;;;;;;;11.07;8.43;;;;;;;;;;8246134;28;20061;-78
2023/03/16 09:00:55;;;;;;;8.77;6.93;;;;;;;;;;8251055;28;20061;-79
2023/03/16 09:04:55;;;;;;;10.50;7.57;;;;;;;;;;8250148;28;20046;-78
2023/03/16 09:08:56;;;;;;;9.75;7.25;;;;;;;;;;8252746;28;20109;-78
2023/03/16 09:12:56;;;;;;;10.30;8.02;;;;;;;;;;8251643;28;20858;-78
2023/03/16 09:16:57;;;;;;;9.18;7.50;;;;;;;;;;8250245;28;20034;-79
2023/03/16 09:20:58;;;;;;;9.45;6.90;;;;;;;;;;8251886;28;20789;-79
2023/03/16 09:24:58;;;;;;;8.57;7.40;;;;;;;;;;8251697;28;20041;-79
2023/03/16 09:28:59;;;;;;;9.52;7.75;;;;;;;;;;8265196;28;20026;-79
2023/03/16 09:32:59;;;;;;;9.55;6.88;;;;;;;;;;8250095;28;20161;-79
2023/03/16 09:37:00;;;;;;;9.38;7.22;;;;;;;;;;8267046;28;20922;-78
2023/03/16 09:41:26;;;;;;;9.40;6.45;;;;;;;;;;8252541;28;20022;-79
2023/03/16 09:45:29;;;;;;;11.88;7.50;;;;;;;;;;8250324;28;20076;-79
2023/03/16 09:49:35;;;;;;;12.50;8.20;;;;;;;;;;8248268;28;20038;-79
2023/03/16 09:53:38;;;;;;;10.95;6.40;;;;;;;;;;8249709;28;20056;-79
2023/03/16 09:57:40;;;;;;;13.30;8.17;;;;;;;;;;8248234;28;20030;-79
2023/03/16 10:01:53;;;;;;;10.10;7.53;;;;;;;;;;8249332;28;20121;-79
2023/03/16 10:05:56;;;;;;;10.23;7.15;;;;;;;;;;8249646;28;20054;-79
2023/03/16 10:09:57;;;;;;;10.27;7.63;;;;;;;;;;8246388;28;20025;-78
2023/03/16 10:13:58;;;;;;;8.45;6.82;;;;;;;;;;8251478;28;21005;-79
2023/03/16 10:18:01;;;;;;;7.53;6.40;;;;;;;;;;8250616;28;20034;-79
2023/03/16 10:22:08;;;;;;;7.78;6.97;;;;;;;;;;8247913;28;20733;-79
2023/03/16 10:26:11;;;;;;;8.05;6.13;;;;;;;;;;8248753;28;20039;-79
2023/03/16 10:30:27;;;;;;;10.00;6.65;;;;;;;;;;8245776;28;20539;-79
2023/03/16 10:34:27;;;;;;;16.02;7.07;;;;;;;;;;8249961;28;20028;-79
2023/03/16 10:38:29;;;;;;;8.50;6.38;;;;;;;;;;8250105;28;20027;-80
2023/03/16 10:42:29;;;;;;;7.88;6.30;;;;;;;;;;8260689;28;20645;-79
2023/03/16 10:46:34;;;;;;;9.27;6.33;;;;;;;;;;8263042;28;20046;-79
2023/03/16 10:50:35;;;;;;;8.57;6.45;;;;;;;;;;8248455;28;20758;-79
2023/03/16 10:54:39;;;;;;;8.25;6.82;;;;;;;;;;8248215;28;20799;-79
2023/03/16 10:58:41;;;;;;;8.55;6.13;;;;;;;;;;8252422;28;20037;-79
2023/03/16 11:02:41;;;;;;;8.73;6.57;;;;;;;;;;8250788;28;20045;-79
2023/03/16 11:06:51;;;;;;;9.43;6.85;;;;;;;;;;8246845;28;20030;-79
2023/03/16 11:10:58;;;;;;;6.45;5.85;;;;;;;;;;8247290;28;20604;-79
2023/03/16 11:15:03;;;;;;;8.95;5.82;;;;;;;;;;8242059;28;20030;-79
2023/03/16 11:19:13;;;;;;;7.35;5.18;;;;;;;;;;8249754;28;20557;-79
2023/03/16 11:23:17;;;;;;;7.65;6.20;;;;;;;;;;8258088;28;20037;-79
2023/03/16 11:27:43;;;;;;;7.03;5.70;;;;;;;;;;8241514;28;20141;-80
2023/03/16 11:31:52;;;;;;;6.88;5.85;;;;;;;;;;8240152;28;21100;-79
2023/03/16 11:35:56;;;;;;;10.63;6.68;;;;;;;;;;8242914;28;20030;-80
2023/03/16 11:40:13;;;;;;;10.17;7.93;;;;;;;;;;8247120;28;20018;-80
2023/03/16 11:44:22;;;;;;;5.80;4.55;;;;;;;;;;8246269;28;20057;-79
2023/03/16 11:48:29;;;;;;;5.63;4.20;;;;;;;;;;8242701;28;20038;-80
2023/03/16 11:52:48;;;;;;;6.10;4.75;;;;;;;;;;8247023;28;20663;-79
2023/03/16 11:56:51;;;;;;;10.65;6.13;;;;;;;;;;8239112;28;20053;-79
2023/03/16 12:00:55;;;;;;;7.40;5.35;;;;;;;;;;8249209;28;20048;-79
2023/03/16 12:05:06;;;;;;;6.57;5.13;;;;;;;;;;8256455;28;20026;-79
2023/03/16 12:09:26;;;;;;;8.95;5.28;;;;;;;;;;8260296;28;20187;-79
2023/03/16 12:13:32;;;;;;;7.55;5.13;;;;;;;;;;8238752;28;20045;-79
2023/03/16 12:17:34;;;;;;;6.60;4.18;;;;;;;;;;8237171;28;20873;-80
2023/03/16 12:21:37;;;;;;;6.63;4.82;;;;;;;;;;8241057;28;20014;-81
2023/03/16 12:25:39;;;;;;;9.13;5.68;;;;;;;;;;8241582;28;20442;-80
2023/03/16 12:29:40;;;;;;;9.73;4.88;;;;;;;;;;8249838;28;20027;-79
2023/03/16 12:33:47;;;;;;;5.75;5.13;;;;;;;;;;8242725;28;20038;-80
2023/03/16 12:37:56;;;;;;;8.27;5.93;;;;;;;;;;8244619;28;20874;-79
2023/03/16 12:42:14;;;;;;;7.95;5.85;;;;;;;;;;8251332;28;20088;-79
2023/03/16 12:46:21;;;;;;;7.40;5.13;;;;;;;;;;8241873;28;20037;-80
2023/03/16 12:50:21;;;;;;;5.72;4.22;;;;;;;;;;8241746;28;20802;-78
2023/03/16 12:54:23;;;;;;;7.38;4.93;;;;;;;;;;8244022;28;20134;-79
2023/03/16 12:58:24;;;;;;;6.22;5.10;;;;;;;;;;8248937;28;20022;-79
2023/03/16 13:02:27;;;;;;;8.23;5.25;;;;;;;;;;8243758;28;20041;-79
2023/03/16 13:06:31;;;;;;;5.68;4.40;;;;;;;;;;8241695;28;20040;-79
2023/03/16 13:10:32;;;;;;;7.78;4.90;;;;;;;;;;8245301;28;20375;-79
2023/03/16 13:14:37;;;;;;;6.38;4.72;;;;;;;;;;8242838;28;20123;-79
2023/03/16 13:18:40;;;;;;;5.65;4.40;;;;;;;;;;8241857;28;20408;-79
2023/03/16 13:22:50;;;;;;;5.60;4.53;;;;;;;;;;8242534;28;20025;-79
2023/03/16 13:26:56;;;;;;;7.15;4.70;;;;;;;;;;8241932;28;20022;-80
2023/03/16 13:30:58;;;;;;;11.13;4.78;;;;;;;;;;8244349;28;20030;-78
2023/03/16 13:34:59;;;;;;;6.20;4.53;;;;;;;;;;8243214;28;20037;-79
2023/03/16 13:39:13;;;;;;;5.38;4.30;;;;;;;;;;8242015;28;20140;-80
2023/03/16 13:43:14;;;;;;;5.35;4.60;;;;;;;;;;8246750;28;20034;-80
2023/03/16 13:47:15;;;;;;;7.38;4.40;;;;;;;;;;8263137;28;20072;-79
2023/03/16 13:51:19;;;;;;;9.10;4.70;;;;;;;;;;8249957;28;20578;-80
2023/03/16 13:55:22;;;;;;;6.97;4.50;;;;;;;;;;8250401;28;20586;-80
2023/03/16 13:59:23;;;;;;;5.87;4.00;;;;;;;;;;8247996;28;20080;-80
2023/03/16 14:03:29;;;;;;;6.28;4.40;;;;;;;;;;8250235;28;20038;-78
2023/03/16 14:07:35;;;;;;;6.03;3.60;;;;;;;;;;8248829;28;20136;-79
2023/03/16 14:11:35;;;;;;;5.20;4.10;;;;;;;;;;8236166;28;20084;-79
2023/03/16 14:15:37;;;;;;;9.02;4.80;;;;;;;;;;8237664;28;20092;-80
2023/03/16 14:19:43;;;;;;;7.85;5.68;;;;;;;;;;8246187;28;20149;-80
2023/03/16 14:23:44;;;;;;;6.20;4.95;;;;;;;;;;8250504;28;20594;-80
2023/03/16 14:27:45;;;;;;;6.95;4.93;;;;;;;;;;8245250;28;20026;-79
2023/03/16 14:31:45;;;;;;;5.45;4.47;;;;;;;;;;8243171;28;20046;-79
2023/03/16 14:35:46;;;;;;;6.63;4.68;;;;;;;;;;8247664;28;20026;-78
2023/03/16 14:39:57;;;;;;;6.38;4.95;;;;;;;;;;8245994;28;20083;-79
2023/03/16 14:43:58;;;;;;;8.35;5.03;;;;;;;;;;8245227;28;20146;-79
2023/03/16 14:48:04;;;;;;;6.80;5.03;;;;;;;;;;8246567;28;20493;-79
2023/03/16 14:52:06;;;;;;;6.63;4.60;;;;;;;;;;8245712;28;20037;-78
2023/03/16 14:56:15;;;;;;;5.95;4.65;;;;;;;;;;8244110;28;20034;-79
2023/03/16 15:00:17;;;;;;;6.63;4.78;;;;;;;;;;8248115;28;20026;-79
2023/03/16 15:04:20;;;;;;;6.00;4.65;;;;;;;;;;8242450;28;20060;-78
2023/03/16 15:08:22;;;;;;;8.90;5.70;;;;;;;;;;8242137;28;20137;-78
2023/03/16 15:12:24;;;;;;;6.70;4.85;;;;;;;;;;8247868;28;20076;-79
2023/03/16 15:16:25;;;;;;;5.63;4.55;;;;;;;;;;8257340;28;20607;-79
2023/03/16 15:20:31;;;;;;;7.43;3.95;;;;;;;;;;8244974;28;20031;-79
2023/03/16 15:24:32;;;;;;;7.00;3.90;;;;;;;;;;8244436;28;20022;-79
2023/03/16 15:28:33;;;;;;;5.00;4.03;;;;;;;;;;8243869;28;20891;-80
2023/03/16 15:32:33;;;;;;;6.15;4.07;;;;;;;;;;8244198;28;20038;-78
2023/03/16 15:36:33;;;;;;;7.57;4.57;;;;;;;;;;8243939;28;20097;-79
2023/03/16 15:40:40;;;;;;;5.55;4.75;;;;;;;;;;8243703;28;20104;-79
2023/03/16 15:44:41;;;;;;;8.35;5.10;;;;;;;;;;8258621;28;20030;-80
2023/03/16 15:48:43;;;;;;;6.35;4.95;;;;;;;;;;8245721;28;20034;-79
2023/03/16 15:52:45;;;;;;;4.93;4.43;;;;;;;;;;8248304;28;20062;-80
2023/03/16 15:56:46;;;;;;;11.32;5.53;;;;;;;;;;8242452;28;20499;-80
2023/03/16 16:00:47;;;;;;;5.83;4.17;;;;;;;;;;8240530;28;20102;-79
2023/03/16 16:04:47;;;;;;;8.85;5.35;;;;;;;;;;8245149;28;20289;-80
2023/03/16 16:08:47;;;;;;;10.68;6.35;;;;;;;;;;8242276;28;20032;-79
2023/03/16 16:12:51;;;;;;;15.73;9.38;;;;;;;;;;8240744;28;20928;-79
2023/03/16 16:16:52;;;;;;;13.77;7.40;;;;;;;;;;8243788;28;20026;-80
2023/03/16 16:20:53;;;;;;;9.02;5.70;;;;;;;;;;8242443;28;20023;-79
2023/03/16 16:24:53;;;;;;;8.40;5.55;;;;;;;;;;8257624;28;20029;-80
2023/03/16 16:28:54;;;;;;;7.00;5.10;;;;;;;;;;8243176;28;20084;-79
2023/03/16 16:32:56;;;;;;;7.63;4.68;;;;;;;;;;8247503;28;20034;-79
2023/03/16 16:36:56;;;;;;;6.75;4.78;;;;;;;;;;8243855;28;20586;-78
2023/03/16 16:40:58;;;;;;;8.80;5.55;;;;;;;;;;8254601;28;20026;-78
2023/03/16 16:44:59;;;;;;;9.82;5.60;;;;;;;;;;8242933;28;20038;-78
2023/03/16 16:49:02;;;;;;;10.48;5.20;;;;;;;;;;8246301;28;20031;-79
2023/03/16 16:53:17;;;;;;;7.23;4.40;;;;;;;;;;8238899;28;20025;-79
2023/03/16 16:57:18;;;;;;;8.50;5.18;;;;;;;;;;8240972;28;20080;-78
2023/03/16 17:01:29;;;;;;;9.68;5.20;;;;;;;;;;8240833;28;20043;-79
2023/03/16 17:05:30;;;;;;;7.97;4.82;;;;;;;;;;8260131;28;20168;-81
2023/03/16 17:09:31;;;;;;;15.90;10.55;;;;;;;;;;8245230;28;21153;-78
2023/03/16 17:13:39;;;;;;;12.93;7.57;;;;;;;;;;8242279;28;20144;-78
2023/03/16 17:17:39;;;;;;;20.77;12.18;;;;;;;;;;8240917;28;20040;-78
2023/03/16 17:21:40;;;;;;;22.00;11.15;;;;;;;;;;8251793;28;20018;-78
2023/03/16 17:25:41;;;;;;;14.77;7.40;;;;;;;;;;8250336;28;20029;-78
2023/03/16 17:29:41;;;;;;;15.77;6.90;;;;;;;;;;8252615;28;20083;-79
2023/03/16 17:33:42;;;;;;;11.07;5.85;;;;;;;;;;8249142;28;20073;-79
2023/03/16 17:37:45;;;;;;;9.73;4.20;;;;;;;;;;8260179;28;20029;-79
2023/03/16 17:42:06;;;;;;;6.50;3.80;;;;;;;;;;8246580;28;20026;-79
2023/03/16 17:46:06;;;;;;;5.05;3.10;;;;;;;;;;8240152;28;20092;-79
2023/03/16 17:50:14;;;;;;;5.82;3.00;;;;;;;;;;8247599;28;20158;-78
2023/03/16 17:54:15;;;;;;;5.03;3.30;;;;;;;;;;8248197;28;20241;-79
2023/03/16 17:58:20;;;;;;;7.13;3.70;;;;;;;;;;8248312;28;20921;-78
2023/03/16 18:02:20;;;;;;;14.38;5.57;;;;;;;;;;8246575;28;20057;-78
2023/03/16 18:06:22;;;;;;;7.23;3.87;;;;;;;;;;8260712;28;20681;-76
2023/03/16 18:10:27;;;;;;;8.27;3.80;;;;;;;;;;8245607;28;21136;-76
2023/03/16 18:14:35;;;;;;;5.35;3.03;;;;;;;;;;8246636;28;20033;-77
2023/03/16 18:18:40;;;;;;;6.95;3.53;;;;;;;;;;8243397;28;20040;-77
2023/03/16 18:22:41;;;;;;;4.85;2.58;;;;;;;;;;8258820;28;20511;-76
2023/03/16 18:26:42;;;;;;;5.03;3.33;;;;;;;;;;8245277;28;20033;-76
2023/03/16 18:30:44;;;;;;;6.45;3.03;;;;;;;;;;8246024;28;20037;-77
2023/03/16 18:34:45;;;;;;;5.32;2.83;;;;;;;;;;8249435;28;20727;-76
2023/03/16 18:38:47;;;;;;;8.90;5.63;;;;;;;;;;8242721;28;20047;-75
2023/03/16 18:42:47;;;;;;;7.47;4.68;;;;;;;;;;8247710;28;20022;-76
2023/03/16 18:46:48;;;;;;;7.88;3.67;;;;;;;;;;8244927;28;20104;-76
2023/03/16 18:50:48;;;;;;;10.45;4.80;;;;;;;;;;8248618;28;20030;-76
2023/03/16 18:54:49;;;;;;;8.52;3.35;;;;;;;;;;8258267;28;20571;-76
2023/03/16 18:58:51;;;;;;;5.05;3.40;;;;;;;;;;8245420;28;20021;-76
2023/03/16 19:02:52;;;;;;;7.03;3.28;;;;;;;;;;8259081;28;20128;-76
2023/03/16 19:06:53;;;;;;;14.50;8.43;;;;;;;;;;8244131;28;20034;-76
2023/03/16 19:10:55;;;;;;;6.55;4.65;;;;;;;;;;8246531;28;20739;-76
2023/03/16 19:14:55;;;;;;;7.18;3.33;;;;;;;;;;8245835;28;20085;-76
2023/03/16 19:18:55;;;;;;;7.07;3.85;;;;;;;;;;8242946;28;20104;-76
2023/03/16 19:23:05;;;;;;;7.30;4.18;;;;;;;;;;8257300;28;20113;-76
2023/03/16 19:27:15;;;;;;;4.78;3.10;;;;;;;;;;8243995;28;20836;-76
2023/03/16 19:31:19;;;;;;;10.75;5.38;;;;;;;;;;8246936;28;21102;-76
2023/03/16 19:35:21;;;;;;;9.32;5.72;;;;;;;;;;8258735;28;20030;-76
2023/03/16 19:39:21;;;;;;;7.10;5.15;;;;;;;;;;8242842;28;20968;-76
2023/03/16 19:43:21;;;;;;;12.63;6.15;;;;;;;;;;8243670;28;20029;-76
2023/03/16 19:47:29;;;;;;;8.98;6.05;;;;;;;;;;8237698;28;20069;-76
2023/03/16 19:51:31;;;;;;;6.55;3.58;;;;;;;;;;8255990;28;20522;-75
2023/03/16 19:55:31;;;;;;;5.20;3.50;;;;;;;;;;8240750;28;20267;-76
2023/03/16 19:59:33;;;;;;;8.63;4.60;;;;;;;;;;8241163;28;21124;-76
2023/03/16 20:03:35;;;;;;;7.05;4.47;;;;;;;;;;8242521;28;20289;-75
2023/03/16 20:07:36;;;;;;;8.00;4.53;;;;;;;;;;8240591;28;20022;-77
2023/03/16 20:11:37;;;;;;;8.25;4.95;;;;;;;;;;8238457;28;20044;-76
2023/03/16 20:15:37;;;;;;;8.05;4.28;;;;;;;;;;8239164;28;20030;-77
2023/03/16 20:19:38;;;;;;;10.15;4.95;;;;;;;;;;8239671;28;20029;-76
2023/03/16 20:23:38;;;;;;;8.10;4.38;;;;;;;;;;8239400;28;20554;-76
2023/03/16 20:27:38;;;;;;;5.20;3.60;;;;;;;;;;8238287;28;20064;-76
2023/03/16 20:31:39;;;;;;;4.60;3.25;;;;;;;;;;8241048;28;20406;-76
2023/03/16 20:35:40;;;;;;;8.40;4.43;;;;;;;;;;8239122;28;20022;-77
2023/03/16 20:39:40;;;;;;;6.95;3.88;;;;;;;;;;8243345;28;20030;-77
2023/03/16 20:43:41;;;;;;;8.32;3.85;;;;;;;;;;8238195;28;20836;-76
2023/03/16 20:47:41;;;;;;;6.63;3.42;;;;;;;;;;8237240;28;20125;-76
2023/03/16 20:51:42;;;;;;;5.63;3.50;;;;;;;;;;8238802;28;20056;-76
2023/03/16 20:55:42;;;;;;;5.03;3.30;;;;;;;;;;8238984;28;20570;-76
2023/03/16 20:59:44;;;;;;;12.57;5.80;;;;;;;;;;8250811;28;20018;-76
2023/03/16 21:03:47;;;;;;;5.25;3.13;;;;;;;;;;8249868;28;20534;-76
2023/03/16 21:07:48;;;;;;;5.35;2.80;;;;;;;;;;8234838;28;20076;-76
2023/03/16 21:11:48;;;;;;;6.53;4.00;;;;;;;;;;8236790;28;20135;-76
2023/03/16 21:15:49;;;;;;;5.40;2.77;;;;;;;;;;8236419;28;20522;-76
2023/03/16 21:19:50;;;;;;;4.00;2.80;;;;;;;;;;8231234;28;20276;-76
2023/03/16 21:23:50;;;;;;;7.43;3.00;;;;;;;;;;8238578;28;20062;-77
2023/03/16 21:27:52;;;;;;;5.72;2.97;;;;;;;;;;8235975;28;20033;-76
2023/03/16 21:31:52;;;;;;;6.53;3.55;;;;;;;;;;8240188;28;21033;-77
2023/03/16 21:35:52;;;;;;;6.03;3.35;;;;;;;;;;8239189;28;20127;-76
2023/03/16 21:39:53;;;;;;;10.95;3.95;;;;;;;;;;8239430;28;20132;-77
2023/03/16 21:43:53;;;;;;;11.73;6.00;;;;;;;;;;8257988;28;20026;-76
2023/03/16 21:47:54;;;;;;;8.68;4.85;;;;;;;;;;8242512;28;20033;-77
2023/03/16 21:51:55;;;;;;;5.95;3.88;;;;;;;;;;8256103;28;20037;-76
2023/03/16 21:55:56;;;;;;;6.20;3.15;;;;;;;;;;8241970;28;20022;-77
2023/03/16 21:59:56;;;;;;;5.63;2.85;;;;;;;;;;8239626;28;20029;-77
2023/03/16 22:03:59;;;;;;;4.30;3.22;;;;;;;;;;8239324;28;20847;-77
2023/03/16 22:08:01;;;;;;;4.80;3.10;;;;;;;;;;8248675;28;20057;-77
2023/03/16 22:12:01;;;;;;;7.75;3.08;;;;;;;;;;8247064;28;20099;-77
2023/03/16 22:16:08;;;;;;;3.60;2.97;;;;;;;;;;8248404;28;20034;-77
2023/03/16 22:20:14;;;;;;;4.55;3.20;;;;;;;;;;8251514;28;20477;-77
2023/03/16 22:24:16;;;;;;;7.63;3.55;;;;;;;;;;8246858;28;20025;-77
2023/03/16 22:28:16;;;;;;;4.65;3.05;;;;;;;;;;8250865;28;21032;-77
2023/03/16 22:32:19;;;;;;;4.50;3.30;;;;;;;;;;8259976;28;20037;-77
2023/03/16 22:36:20;;;;;;;4.43;3.13;;;;;;;;;;8245128;28;20037;-77
2023/03/16 22:40:22;;;;;;;5.85;3.55;;;;;;;;;;8244048;28;20060;-77
2023/03/16 22:44:23;;;;;;;4.93;3.20;;;;;;;;;;8244871;28;20031;-77
2023/03/16 22:48:25;;;;;;;5.95;3.55;;;;;;;;;;8247319;28;20045;-77
2023/03/16 22:52:28;;;;;;;3.65;2.80;;;;;;;;;;8246249;28;20494;-77
2023/03/16 22:56:29;;;;;;;5.15;3.33;;;;;;;;;;8248018;28;20260;-77
2023/03/16 23:00:30;;;;;;;4.95;3.13;;;;;;;;;;8250737;28;20037;-77
2023/03/16 23:04:31;;;;;;;5.57;3.10;;;;;;;;;;8243095;28;20033;-77
2023/03/16 23:08:31;;;;;;;4.03;2.97;;;;;;;;;;8244425;28;20033;-77
2023/03/16 23:12:31;;;;;;;5.18;3.20;;;;;;;;;;8250253;28;20160;-77
2023/03/16 23:16:34;;;;;;;6.38;3.35;;;;;;;;;;8244872;28;20034;-77
2023/03/16 23:20:34;;;;;;;6.03;3.72;;;;;;;;;;8241906;28;20923;-77
2023/03/16 23:24:34;;;;;;;5.00;3.50;;;;;;;;;;8243685;28;20027;-77
2023/03/16 23:28:35;;;;;;;4.20;3.30;;;;;;;;;;8239398;28;20038;-77
2023/03/16 23:32:35;;;;;;;4.72;3.55;;;;;;;;;;8242051;28;20044;-77
2023/03/16 23:36:35;;;;;;;5.22;3.75;;;;;;;;;;8242139;28;20394;-77
2023/03/16 23:40:37;;;;;;;8.38;3.50;;;;;;;;;;8242405;28;20057;-77
2023/03/16 23:44:37;;;;;;;6.82;3.47;;;;;;;;;;8243083;28;20057;-77
2023/03/16 23:48:38;;;;;;;3.73;3.30;;;;;;;;;;8241051;28;20033;-77
2023/03/16 23:52:38;;;;;;;5.50;3.28;;;;;;;;;;8243479;28;20272;-77
2023/03/16 23:56:38;;;;;;;8.65;4.00;;;;;;;;;;8246072;28;20061;-77
